createdAt,value
2017-11-27T00:00:28.503Z,0.20
2017-11-27T00:03:03.024Z,0.30
2017-11-27T00:05:37.778Z,0.20
2017-11-27T00:08:11.661Z,0.30
2017-11-27T00:10:45.552Z,0.20
2017-11-27T00:13:19.552Z,0.20
2017-11-27T00:15:53.717Z,0.30
2017-11-27T00:18:27.962Z,0.30
2017-11-27T00:21:02.350Z,0.20
2017-11-27T00:23:36.323Z,0.20
2017-11-27T00:26:11.978Z,0.20
2017-11-27T00:28:46.894Z,0.20
2017-11-27T00:31:20.684Z,0.20
2017-11-27T00:33:54.837Z,0.30
2017-11-27T00:36:28.976Z,0.20
2017-11-27T00:39:04.148Z,0.20
2017-11-27T00:41:37.955Z,0.20
2017-11-27T00:44:11.918Z,0.20
2017-11-27T00:46:47.502Z,0.20
2017-11-27T00:49:22.276Z,0.20
2017-11-27T00:51:57.927Z,0.20
2017-11-27T00:54:31.745Z,0.20
2017-11-27T00:57:07.509Z,0.10
2017-11-27T00:59:42.473Z,0.20
2017-11-27T01:02:17.217Z,0.10
2017-11-27T01:04:52.128Z,0.30
2017-11-27T01:07:26.015Z,0.30
2017-11-27T01:09:59.825Z,0.40
2017-11-27T01:12:33.685Z,0.30
2017-11-27T01:15:08.530Z,0.40
2017-11-27T01:17:43.474Z,0.60
2017-11-27T01:20:19.198Z,0.40
2017-11-27T01:22:53.431Z,0.40
2017-11-27T01:25:27.497Z,0.40
2017-11-27T01:28:01.542Z,0.30
2017-11-27T01:30:35.436Z,0.20
2017-11-27T01:33:09.308Z,0.20
2017-11-27T01:35:43.025Z,0.10
2017-11-27T01:38:16.958Z,0.10
2017-11-27T01:40:50.959Z,0.10
2017-11-27T01:43:24.760Z,0.10
2017-11-27T01:45:59.027Z,0.10
2017-11-27T01:48:32.754Z,0.10
2017-11-27T01:51:08.054Z,0.10
2017-11-27T01:53:41.855Z,0.10
2017-11-27T01:56:15.740Z,0.20
2017-11-27T01:58:49.623Z,0.20
2017-11-27T02:01:23.715Z,0.20
2017-11-27T02:03:57.460Z,0.20
2017-11-27T02:06:31.995Z,0.30
2017-11-27T02:09:05.903Z,0.20
2017-11-27T02:11:39.625Z,0.30
2017-11-27T02:14:13.265Z,0.40
2017-11-27T02:16:47.823Z,0.50
2017-11-27T02:19:22.280Z,0.40
2017-11-27T02:21:56.053Z,0.40
2017-11-27T02:24:29.751Z,0.60
2017-11-27T02:27:04.122Z,0.70
2017-11-27T02:29:38.600Z,0.60
2017-11-27T02:32:12.143Z,0.70
2017-11-27T02:34:46.435Z,0.70
2017-11-27T02:37:20.092Z,0.50
2017-11-27T02:39:54.608Z,0.50
2017-11-27T02:42:28.385Z,0.50
2017-11-27T02:45:02.194Z,0.70
2017-11-27T02:47:36.895Z,0.80
2017-11-27T02:50:12.480Z,0.80
2017-11-27T02:52:46.383Z,0.80
2017-11-27T02:55:20.358Z,0.90
2017-11-27T02:57:54.955Z,1.00
2017-11-27T03:00:29.122Z,1.00
2017-11-27T03:03:04.365Z,0.80
2017-11-27T03:05:39.252Z,0.70
2017-11-27T03:08:13.378Z,0.70
2017-11-27T03:10:47.911Z,0.70
2017-11-27T03:13:23.314Z,0.70
2017-11-27T03:15:56.925Z,0.70
2017-11-27T03:18:32.534Z,0.70
2017-11-27T03:21:06.581Z,0.70
2017-11-27T03:23:41.501Z,0.70
2017-11-27T03:26:16.388Z,0.60
2017-11-27T03:28:52.046Z,0.60
2017-11-27T03:31:25.813Z,0.60
2017-11-27T03:34:01.648Z,0.60
2017-11-27T03:36:37.329Z,0.50
2017-11-27T03:39:11.750Z,0.50
2017-11-27T03:41:45.951Z,0.40
2017-11-27T03:44:19.697Z,0.50
2017-11-27T03:46:54.078Z,0.40
2017-11-27T03:49:29.193Z,0.50
2017-11-27T03:52:04.382Z,0.40
2017-11-27T03:54:39.190Z,0.40
2017-11-27T03:57:13.020Z,0.40
2017-11-27T03:59:47.693Z,0.40
2017-11-27T04:02:21.846Z,0.40
2017-11-27T04:04:56.537Z,0.50
2017-11-27T04:07:30.381Z,0.50
2017-11-27T04:10:04.360Z,0.70
2017-11-27T04:12:38.296Z,0.70
2017-11-27T04:15:12.224Z,0.80
2017-11-27T04:17:46.175Z,0.60
2017-11-27T04:20:20.105Z,0.60
2017-11-27T04:22:54.879Z,0.50
2017-11-27T04:25:29.214Z,0.50
2017-11-27T04:28:03.681Z,0.50
2017-11-27T04:30:37.744Z,0.50
2017-11-27T04:33:13.129Z,0.40
2017-11-27T04:35:47.090Z,0.40
2017-11-27T04:38:20.951Z,0.40
2017-11-27T04:40:55.540Z,0.30
2017-11-27T04:43:30.250Z,0.30
2017-11-27T04:46:04.227Z,0.30
2017-11-27T04:48:38.350Z,0.30
2017-11-27T04:51:12.880Z,0.40
2017-11-27T04:53:49.869Z,0.30
2017-11-27T04:56:24.703Z,0.30
2017-11-27T04:58:58.517Z,0.30
2017-11-27T05:01:32.508Z,0.40
2017-11-27T05:04:06.925Z,0.30
2017-11-27T05:06:41.185Z,0.30
2017-11-27T05:09:15.086Z,0.30
2017-11-27T05:11:49.777Z,0.60
2017-11-27T05:14:23.812Z,0.60
2017-11-27T05:17:00.108Z,0.80
2017-11-27T05:19:34.833Z,1.10
2017-11-27T05:22:09.144Z,1.10
2017-11-27T05:24:44.019Z,0.90
2017-11-27T05:27:18.847Z,1.00
2017-11-27T05:29:52.787Z,1.10
2017-11-27T05:32:28.494Z,1.30
2017-11-27T05:35:03.448Z,1.30
2017-11-27T05:37:38.437Z,1.10
2017-11-27T05:40:13.755Z,1.20
2017-11-27T05:42:47.839Z,1.20
2017-11-27T05:45:21.739Z,1.20
2017-11-27T05:47:57.887Z,0.90
2017-11-27T05:50:31.732Z,0.60
2017-11-27T05:53:05.903Z,0.50
2017-11-27T05:55:44.468Z,0.80
2017-11-27T05:58:19.166Z,0.90
2017-11-27T06:00:53.188Z,0.90
2017-11-27T06:03:28.119Z,1.00
2017-11-27T06:06:02.306Z,1.10
2017-11-27T06:08:37.157Z,1.20
2017-11-27T06:11:12.049Z,1.20
2017-11-27T06:13:46.109Z,1.10
2017-11-27T06:16:20.083Z,1.20
2017-11-27T06:18:54.805Z,1.30
2017-11-27T06:21:28.898Z,1.20
2017-11-27T06:24:04.830Z,1.00
2017-11-27T06:26:38.635Z,0.90
2017-11-27T06:29:12.719Z,1.10
2017-11-27T06:31:47.747Z,1.20
2017-11-27T06:34:22.683Z,1.20
2017-11-27T06:36:56.845Z,1.30
2017-11-27T06:39:31.214Z,1.30
2017-11-27T06:42:05.920Z,1.30
2017-11-27T06:44:40.704Z,1.30
2017-11-27T06:47:15.567Z,1.30
2017-11-27T06:49:51.034Z,1.20
2017-11-27T06:52:25.109Z,1.20
2017-11-27T06:54:59.091Z,1.20
2017-11-27T06:57:33.461Z,1.20
2017-11-27T07:00:07.713Z,0.90
2017-11-27T07:02:42.833Z,0.40
2017-11-27T07:05:16.903Z,0.40
2017-11-27T07:07:50.924Z,0.30
2017-11-27T07:10:25.787Z,0.30
2017-11-27T07:13:01.809Z,0.60
2017-11-27T07:15:35.904Z,0.60
2017-11-27T07:18:10.210Z,0.70
2017-11-27T07:20:44.831Z,0.90
2017-11-27T07:23:18.611Z,1.00
2017-11-27T07:25:52.746Z,1.10
2017-11-27T07:28:27.082Z,1.00
2017-11-27T07:31:01.632Z,1.00
2017-11-27T07:33:35.702Z,1.00
2017-11-27T07:36:09.916Z,0.90
2017-11-27T07:38:50.601Z,1.00
2017-11-27T07:41:24.425Z,1.10
2017-11-27T07:43:59.733Z,1.10
2017-11-27T07:46:33.868Z,1.20
2017-11-27T07:49:08.551Z,1.20
2017-11-27T07:51:43.205Z,1.20
2017-11-27T07:54:19.020Z,1.20
2017-11-27T07:56:54.322Z,1.20
2017-11-27T07:59:28.331Z,1.10
2017-11-27T08:02:02.232Z,1.10
2017-11-27T08:04:36.062Z,1.30
2017-11-27T08:07:11.041Z,1.50
2017-11-27T08:09:44.869Z,1.50
2017-11-27T08:12:19.221Z,1.50
2017-11-27T08:14:54.412Z,1.70
2017-11-27T08:17:28.544Z,1.70
2017-11-27T08:20:02.541Z,1.80
2017-11-27T08:22:37.170Z,1.80
2017-11-27T08:25:11.396Z,1.50
2017-11-27T08:27:45.287Z,1.60
2017-11-27T08:30:19.351Z,1.50
2017-11-27T08:32:53.777Z,1.50
2017-11-27T08:35:27.625Z,1.40
2017-11-27T08:38:01.421Z,1.00
2017-11-27T08:40:35.659Z,0.90
2017-11-27T08:43:10.211Z,0.90
2017-11-27T08:45:46.427Z,1.10
2017-11-27T08:48:21.254Z,1.40
2017-11-27T08:50:55.352Z,1.40
2017-11-27T08:53:29.356Z,1.40
2017-11-27T08:56:03.479Z,1.00
2017-11-27T08:58:37.517Z,1.00
2017-11-27T09:01:11.717Z,1.00
2017-11-27T09:03:45.735Z,1.10
2017-11-27T09:06:19.914Z,1.10
2017-11-27T09:08:54.022Z,1.10
2017-11-27T09:11:29.012Z,1.10
2017-11-27T09:14:03.824Z,1.10
2017-11-27T09:16:39.596Z,1.50
2017-11-27T09:19:14.401Z,1.80
2017-11-27T09:21:48.808Z,1.80
2017-11-27T09:24:24.562Z,2.10
2017-11-27T09:26:58.519Z,2.30
2017-11-27T09:29:32.523Z,2.40
2017-11-27T09:32:06.445Z,2.60
2017-11-27T09:34:40.367Z,2.60
2017-11-27T09:37:15.342Z,2.70
2017-11-27T09:39:49.315Z,2.60
2017-11-27T09:42:23.979Z,2.70
2017-11-27T09:44:58.038Z,2.70
2017-11-27T09:47:32.626Z,2.70
2017-11-27T09:50:06.786Z,2.70
2017-11-27T09:52:41.479Z,2.60
2017-11-27T09:55:15.362Z,2.80
2017-11-27T09:57:49.901Z,2.80
2017-11-27T10:00:25.081Z,2.80
2017-11-27T10:02:59.781Z,2.30
2017-11-27T10:05:33.719Z,2.20
2017-11-27T10:08:08.686Z,2.00
2017-11-27T10:10:42.673Z,2.20
2017-11-27T10:13:17.616Z,1.90
2017-11-27T10:15:51.698Z,2.00
2017-11-27T10:18:26.770Z,1.90
2017-11-27T10:21:02.136Z,2.00
2017-11-27T10:23:36.044Z,2.10
2017-11-27T10:26:09.735Z,1.90
2017-11-27T10:28:43.483Z,1.90
2017-11-27T10:31:17.654Z,2.00
2017-11-27T10:33:51.774Z,2.10
2017-11-27T10:36:25.591Z,2.10
2017-11-27T10:39:00.812Z,2.10
2017-11-27T10:41:35.407Z,2.00
2017-11-27T10:44:09.493Z,2.10
2017-11-27T10:46:43.545Z,2.20
2017-11-27T10:49:17.833Z,2.20
2017-11-27T10:51:51.925Z,2.30
2017-11-27T10:54:27.208Z,2.40
2017-11-27T10:57:01.812Z,2.70
2017-11-27T10:59:35.958Z,2.80
2017-11-27T11:02:09.998Z,2.80
2017-11-27T11:04:46.792Z,3.00
2017-11-27T11:07:21.382Z,3.10
2017-11-27T11:09:56.151Z,3.10
2017-11-27T11:12:30.155Z,3.00
2017-11-27T11:15:03.825Z,2.90
2017-11-27T11:17:37.734Z,2.70
2017-11-27T11:20:13.029Z,2.80
2017-11-27T11:22:47.219Z,2.80
2017-11-27T11:25:21.168Z,2.60
2017-11-27T11:27:54.884Z,2.60
2017-11-27T11:30:29.058Z,2.60
2017-11-27T11:33:04.214Z,2.50
2017-11-27T11:35:38.821Z,2.50
2017-11-27T11:38:12.757Z,2.60
2017-11-27T11:40:46.934Z,2.90
2017-11-27T11:43:20.910Z,3.20
2017-11-27T11:45:54.996Z,3.20
2017-11-27T11:48:29.021Z,3.30
2017-11-27T11:51:04.061Z,3.20
2017-11-27T11:53:39.324Z,3.10
2017-11-27T11:56:14.274Z,3.10
2017-11-27T11:58:48.165Z,3.00
2017-11-27T12:01:22.253Z,3.10
2017-11-27T12:03:56.022Z,3.20
2017-11-27T12:06:29.926Z,3.20
2017-11-27T12:09:03.958Z,3.10
2017-11-27T12:11:38.853Z,3.10
2017-11-27T12:14:12.984Z,3.20
2017-11-27T12:16:46.842Z,3.20
2017-11-27T12:19:21.315Z,3.30
2017-11-27T12:21:56.399Z,3.30
2017-11-27T12:24:30.072Z,3.20
2017-11-27T12:27:05.806Z,3.40
2017-11-27T12:29:39.802Z,3.40
2017-11-27T12:32:13.728Z,3.30
2017-11-27T12:34:47.977Z,3.30
2017-11-27T12:37:22.315Z,3.30
2017-11-27T12:39:56.420Z,3.30
2017-11-27T12:42:30.336Z,3.40
2017-11-27T12:45:04.148Z,3.60
2017-11-27T12:47:38.921Z,3.70
2017-11-27T12:50:12.929Z,3.90
2017-11-27T12:52:46.870Z,4.10
2017-11-27T12:55:22.490Z,4.20
2017-11-27T12:57:56.661Z,4.20
2017-11-27T13:00:31.430Z,4.50
2017-11-27T13:03:05.264Z,4.50
2017-11-27T13:05:40.003Z,4.50
2017-11-27T13:08:14.062Z,4.60
2017-11-27T13:10:49.352Z,4.60
2017-11-27T13:13:23.434Z,4.60
2017-11-27T13:15:58.167Z,4.60
2017-11-27T13:18:32.243Z,4.50
2017-11-27T13:21:06.916Z,4.50
2017-11-27T13:23:41.012Z,4.60
2017-11-27T13:26:15.638Z,4.50
2017-11-27T13:28:49.719Z,4.40
2017-11-27T13:31:24.622Z,4.50
2017-11-27T13:33:59.008Z,4.50
2017-11-27T13:36:33.008Z,4.40
2017-11-27T13:39:07.936Z,4.40
2017-11-27T13:41:42.105Z,4.50
2017-11-27T13:44:15.795Z,4.50
2017-11-27T13:46:50.764Z,4.30
2017-11-27T13:49:24.953Z,4.40
2017-11-27T13:52:00.645Z,4.50
2017-11-27T13:54:35.170Z,4.50
2017-11-27T13:57:09.804Z,4.40
2017-11-27T13:59:44.611Z,4.40
2017-11-27T14:02:19.560Z,4.60
2017-11-27T14:04:53.689Z,4.50
2017-11-27T14:07:28.669Z,4.60
2017-11-27T14:10:02.537Z,4.60
2017-11-27T14:12:36.650Z,4.40
2017-11-27T14:15:10.651Z,4.30
2017-11-27T14:17:44.578Z,4.40
2017-11-27T14:20:18.268Z,4.30
2017-11-27T14:22:52.145Z,4.20
2017-11-27T14:25:27.159Z,4.30
2017-11-27T14:28:02.131Z,4.30
2017-11-27T14:30:36.120Z,4.30
2017-11-27T14:33:10.219Z,4.50
2017-11-27T14:35:43.973Z,4.60
2017-11-27T14:38:18.732Z,4.60
2017-11-27T14:40:53.945Z,4.30
2017-11-27T14:43:28.410Z,4.30
2017-11-27T14:46:02.475Z,4.30
2017-11-27T14:48:36.652Z,4.30
2017-11-27T14:51:11.369Z,4.60
2017-11-27T14:53:45.350Z,4.60
2017-11-27T14:56:19.479Z,4.70
2017-11-27T14:58:53.417Z,4.80
2017-11-27T15:01:27.673Z,4.40
2017-11-27T15:04:02.895Z,4.40
2017-11-27T15:06:36.865Z,4.50
2017-11-27T15:09:11.748Z,4.30
2017-11-27T15:11:46.312Z,4.00
2017-11-27T15:14:20.139Z,4.00
2017-11-27T15:16:55.686Z,3.90
2017-11-27T15:19:32.349Z,3.90
2017-11-27T15:22:06.499Z,3.90
2017-11-27T15:24:41.269Z,3.80
2017-11-27T15:27:15.143Z,3.80
2017-11-27T15:29:50.036Z,3.40
2017-11-27T15:32:24.008Z,3.40
2017-11-27T15:34:57.911Z,3.30
2017-11-27T15:37:31.842Z,3.30
2017-11-27T15:40:05.633Z,3.30
2017-11-27T15:42:39.697Z,2.90
2017-11-27T15:45:13.744Z,2.80
2017-11-27T15:47:47.722Z,3.00
2017-11-27T15:50:21.968Z,2.90
2017-11-27T15:52:56.820Z,2.80
2017-11-27T15:55:32.447Z,2.80
2017-11-27T15:58:07.763Z,3.00
2017-11-27T16:00:41.702Z,2.90
2017-11-27T16:03:15.871Z,2.90
2017-11-27T16:05:51.889Z,2.90
2017-11-27T16:08:26.045Z,2.80
2017-11-27T16:11:00.251Z,2.90
2017-11-27T16:13:34.290Z,2.90
2017-11-27T16:16:08.280Z,2.80
2017-11-27T16:18:42.331Z,2.80
2017-11-27T16:21:16.560Z,2.80
2017-11-27T16:23:51.188Z,2.60
2017-11-27T16:26:25.092Z,2.60
2017-11-27T16:28:59.160Z,2.60
2017-11-27T16:31:34.163Z,2.50
2017-11-27T16:34:08.016Z,2.50
2017-11-27T16:36:42.457Z,2.30
2017-11-27T16:39:16.414Z,2.20
2017-11-27T16:41:52.368Z,2.30
2017-11-27T16:44:27.559Z,2.00
2017-11-27T16:47:02.879Z,2.00
2017-11-27T16:49:37.965Z,2.00
2017-11-27T16:52:12.676Z,2.10
2017-11-27T16:54:47.327Z,1.90
2017-11-27T16:57:21.529Z,1.80
2017-11-27T17:02:54.123Z,1.90
2017-11-27T17:05:28.588Z,2.00
2017-11-27T17:08:02.705Z,1.90
2017-11-27T17:10:37.196Z,2.00
2017-11-27T17:13:11.300Z,2.10
2017-11-27T17:15:45.261Z,2.10
2017-11-27T17:18:21.054Z,2.20
2017-11-27T17:20:54.913Z,2.20
2017-11-27T17:23:29.270Z,2.20
2017-11-27T17:26:03.705Z,1.40
2017-11-27T17:28:37.776Z,1.60
2017-11-27T17:31:13.035Z,1.70
2017-11-27T17:33:48.150Z,0.80
2017-11-27T17:36:23.093Z,0.80
2017-11-27T17:38:56.886Z,1.10
2017-11-27T17:41:30.829Z,1.40
2017-11-27T17:44:04.933Z,1.60
2017-11-27T17:46:39.810Z,1.80
2017-11-27T17:49:13.748Z,1.80
2017-11-27T17:51:48.481Z,1.90
2017-11-27T17:54:23.192Z,2.00
2017-11-27T17:56:57.851Z,2.00
2017-11-27T17:59:31.992Z,2.00
2017-11-27T18:02:06.870Z,2.00
2017-11-27T18:04:41.551Z,2.00
2017-11-27T18:10:13.643Z,1.70
2017-11-27T18:12:47.807Z,1.70
2017-11-27T18:15:23.768Z,1.50
2017-11-27T18:17:57.841Z,1.50
2017-11-27T18:20:31.947Z,1.60
2017-11-27T18:23:06.114Z,1.60
2017-11-27T18:25:43.139Z,1.70
2017-11-27T18:28:17.467Z,1.70
2017-11-27T18:33:49.109Z,1.90
2017-11-27T18:36:23.110Z,1.80
2017-11-27T18:38:57.397Z,1.60
2017-11-27T18:41:31.507Z,1.10
2017-11-27T18:44:05.599Z,1.30
2017-11-27T18:46:39.643Z,1.40
2017-11-27T18:49:13.686Z,1.50
2017-11-27T18:51:48.118Z,1.50
2017-11-27T18:54:22.066Z,1.50
2017-11-27T18:56:56.051Z,1.50
2017-11-27T18:59:29.931Z,1.50
2017-11-27T19:02:03.948Z,1.40
2017-11-27T19:04:38.651Z,1.30
2017-11-27T19:07:12.647Z,1.20
2017-11-27T19:09:47.195Z,1.10
2017-11-27T19:12:21.971Z,1.10
2017-11-27T19:14:55.936Z,1.10
2017-11-27T19:17:29.756Z,1.20
2017-11-27T19:20:03.573Z,1.10
2017-11-27T19:22:38.348Z,0.80
2017-11-27T19:25:12.812Z,1.00
2017-11-27T19:27:46.466Z,1.00
2017-11-27T19:30:20.281Z,1.20
2017-11-27T19:32:54.714Z,1.30
2017-11-27T19:35:29.379Z,1.30
2017-11-27T19:38:03.178Z,1.30
2017-11-27T19:40:36.963Z,1.30
2017-11-27T19:43:10.723Z,1.30
2017-11-27T19:45:44.467Z,1.30
2017-11-27T19:48:18.407Z,1.40
2017-11-27T19:50:52.143Z,1.30
2017-11-27T19:53:25.749Z,1.20
2017-11-27T19:56:00.956Z,1.20
2017-11-27T19:58:34.683Z,1.20
2017-11-27T20:01:08.285Z,1.20
2017-11-27T20:03:42.082Z,1.20
2017-11-27T20:06:15.974Z,1.20
2017-11-27T20:08:50.398Z,0.80
2017-11-27T20:11:25.163Z,0.80
2017-11-27T20:13:58.853Z,0.80
2017-11-27T20:16:32.627Z,0.90
2017-11-27T20:19:06.451Z,1.00
2017-11-27T20:21:40.244Z,1.00
2017-11-27T20:24:14.883Z,1.00
2017-11-27T20:26:48.738Z,1.00
2017-11-27T20:29:22.438Z,1.10
2017-11-27T20:31:56.282Z,1.00
2017-11-27T20:34:30.005Z,1.10
2017-11-27T20:37:03.663Z,1.10
2017-11-27T20:39:37.402Z,1.10
2017-11-27T20:42:11.632Z,1.20
2017-11-27T20:44:45.607Z,1.20
2017-11-27T20:47:19.284Z,1.10
2017-11-27T20:49:53.089Z,1.20
2017-11-27T20:52:26.840Z,1.10
2017-11-27T20:55:00.573Z,1.20
2017-11-27T20:57:34.358Z,1.20
2017-11-27T21:00:08.007Z,1.10
2017-11-27T21:02:42.553Z,1.20
2017-11-27T21:05:16.268Z,1.20
2017-11-27T21:07:49.873Z,1.20
2017-11-27T21:10:23.687Z,1.20
2017-11-27T21:12:57.470Z,1.20
2017-11-27T21:15:31.976Z,1.20
2017-11-27T21:18:05.492Z,1.20
2017-11-27T21:20:39.349Z,1.20
2017-11-27T21:23:13.766Z,1.30
2017-11-27T21:25:47.625Z,1.30
2017-11-27T21:28:23.657Z,1.30
2017-11-27T21:30:58.819Z,1.50
2017-11-27T21:33:33.207Z,1.50
2017-11-27T21:36:07.165Z,1.50
2017-11-27T21:38:41.040Z,1.50
2017-11-27T21:41:15.535Z,1.50
2017-11-27T21:43:49.649Z,1.50
2017-11-27T21:46:23.746Z,1.60
2017-11-27T21:48:57.910Z,1.70
2017-11-27T21:51:31.762Z,1.70
2017-11-27T21:54:06.961Z,1.70
2017-11-27T21:56:40.818Z,1.70
2017-11-27T21:59:15.317Z,1.80
2017-11-27T22:01:49.321Z,1.80
2017-11-27T22:04:23.896Z,1.90
2017-11-27T22:06:57.976Z,2.00
2017-11-27T22:09:31.903Z,1.90
2017-11-27T22:12:06.129Z,1.80
2017-11-27T22:14:39.869Z,1.70
2017-11-27T22:17:13.783Z,1.80
2017-11-27T22:19:49.109Z,1.70
2017-11-27T22:22:23.912Z,1.70
2017-11-27T22:24:59.009Z,1.70
2017-11-27T22:27:32.803Z,1.80
2017-11-27T22:30:06.895Z,1.80
2017-11-27T22:32:40.788Z,1.80
2017-11-27T22:35:14.743Z,1.80
2017-11-27T22:37:48.683Z,1.80
2017-11-27T22:40:22.547Z,1.80
2017-11-27T22:42:57.403Z,1.80
2017-11-27T22:45:31.198Z,1.80
2017-11-27T22:48:06.150Z,1.80
2017-11-27T22:50:40.795Z,1.90
2017-11-27T22:53:15.407Z,1.90
2017-11-27T22:55:50.096Z,1.90
2017-11-27T22:58:23.850Z,1.90
2017-11-27T23:00:57.704Z,2.00
2017-11-27T23:03:31.590Z,1.90
2017-11-27T23:06:06.239Z,2.00
2017-11-27T23:08:40.454Z,2.00
2017-11-27T23:11:14.316Z,2.00
2017-11-27T23:13:48.142Z,2.00
2017-11-27T23:16:21.926Z,2.10
2017-11-27T23:18:55.509Z,2.10
2017-11-27T23:21:29.049Z,2.00
2017-11-27T23:24:02.594Z,2.10
2017-11-27T23:26:36.100Z,2.00
2017-11-27T23:29:09.685Z,2.00
2017-11-27T23:31:43.282Z,2.00
2017-11-27T23:34:16.868Z,1.90
2017-11-27T23:36:50.472Z,1.90
2017-11-27T23:39:24.050Z,2.00
2017-11-27T23:41:57.603Z,1.70
2017-11-27T23:44:31.203Z,1.40
2017-11-27T23:47:04.865Z,1.40
2017-11-27T23:49:38.395Z,1.50
2017-11-27T23:52:12.422Z,1.60
2017-11-27T23:54:46.568Z,1.70
2017-11-27T23:57:21.216Z,1.80
2017-11-27T23:59:55.664Z,1.70
